Altamont, Illinois
Current Conditions -  °F | °C
As of 6:15 PM on Wednesday 26 Nov 2014 (Local Time) from K1H2 Reporting Station
Light Snow Light Snow  
Wind Chill: 31°   Ceiling: 400
Heat Index: 31°   Visibility: 1mi
Dew Point: 29°   Wind: 0mph
Humidity: 90%   Direction: NA
Pressure: 30.07"   Gusts: NA
Location:  39.06°N, 88.75°W
Report Text: K1H2 270015Z AUTO 00000KT 1SM -SN OVC004 00/M02 A3007 RMK AO2 P0001 T10051019
Loading
Personal Weather Stations






























Interactive Weather Map New forecast layout! Learn more

10-Day Weather Forecast

Advertisements
Track Severe Weather on mobile